Bookmark and Share
Track history (hours):
 

Captain Jimmy T Moran

More information available from US FCC via Universal Licensing System and Coast Guard Vessel Documentation Center.

Last reported at 2014-Apr-17 11:14 UTC. Time now 2014-Apr-20 03:24 UTC.
Position N 29°55' W 090°06'.

Length 26 m; draft 4.9 m.

Type: Tug. MMSI: 367382920.

NotesDate/timePositionNaut miles runAvg speedWind from/ knotsBaromVisibWave heightAir tempDewpointWater temp
2014-Apr-17 11:14N 29°55' W 090°06'0 0.0
2014-Apr-17 10:33N 29°55' W 090°06'1 0.6
2014-Apr-17 09:33N 29°55' W 090°07'17 0.3
2014-Apr-15 05:34N 29°60' W 090°26'1 0.3
2014-Apr-15 03:32N 29°60' W 090°26'1 0.6
2014-Apr-15 02:34N 29°60' W 090°27'1 0.6
2014-Apr-15 01:34N 29°60' W 090°26'0 0.0
2014-Apr-15 00:33N 29°60' W 090°26'0 0.0
2014-Apr-14 23:34N 29°60' W 090°26'0 0.0
2014-Apr-14 22:33N 29°60' W 090°26'0 0.0
2014-Apr-14 21:34N 29°60' W 090°26'7 1.0
2014-Apr-14 14:33N 30°03' W 090°33'0 0.0
2014-Apr-14 13:33N 30°03' W 090°33'0 0.0
2014-Apr-14 11:33N 30°03' W 090°33'0 0.0
2014-Apr-14 10:33N 30°03' W 090°33'0 0.0
2014-Apr-14 09:33N 30°03' W 090°33'0 0.0
2014-Apr-14 08:33N 30°03' W 090°33'0 0.0
2014-Apr-14 07:33N 30°03' W 090°33'0 0.0
2014-Apr-14 06:33N 30°03' W 090°33'0 0.0
2014-Apr-14 05:33N 30°03' W 090°33'1 0.2
2014-Apr-13 22:32N 30°03' W 090°35'0 0.0
2014-Apr-13 21:33N 30°03' W 090°35'0 0.0
2014-Apr-13 20:34N 30°03' W 090°35'1 0.6
2014-Apr-13 19:33N 30°03' W 090°36'0 0.5
2014-Apr-13 18:33N 30°03' W 090°35'3 3.2
2014-Apr-13 17:33N 30°03' W 090°31'6 5.6
2014-Apr-13 16:33N 29°60' W 090°26'2 2.2
2014-Apr-13 15:33N 29°59' W 090°24'0 0.0
2014-Apr-13 12:33N 29°59' W 090°24'0 0.0
2014-Apr-13 11:34N 29°59' W 090°24'1 0.8
2014-Apr-13 10:29N 29°59' W 090°24'0 0.0
2014-Apr-13 09:34N 29°59' W 090°24'1 0.9
2014-Apr-13 08:34N 29°59' W 090°24'0 0.0
2014-Apr-13 07:33N 29°59' W 090°24'0 0.0
2014-Apr-13 06:24N 29°59' W 090°24'0 0.0
2014-Apr-13 05:33N 29°59' W 090°24'0 0.0
2014-Apr-13 04:34N 29°59' W 090°24'0 0.0
2014-Apr-13 03:33N 29°59' W 090°24'0 0.0
2014-Apr-13 02:33N 29°59' W 090°24'3 2.6
2014-Apr-13 01:33N 29°56' W 090°22'0 0.0
2014-Apr-12 16:26N 29°56' W 090°22'3 0.7
2014-Apr-12 12:31N 29°59' W 090°24'0 0.0
2014-Apr-12 11:33N 29°59' W 090°24'0 0.0
2014-Apr-12 10:34N 29°59' W 090°24'0 0.0
2014-Apr-12 09:17N 29°59' W 090°24'1 1.2
2014-Apr-12 08:32N 29°59' W 090°24'2 2.5
2014-Apr-12 07:33N 29°60' W 090°27'10 9.6
2014-Apr-12 06:33N 30°02' W 090°38'4 3.4
2014-Apr-12 05:31N 30°02' W 090°42'6 6.4
2014-Apr-12 04:33N 30°03' W 090°35'6 5.8
2014-Apr-12 03:33N 30°01' W 090°28'5 4.8
2014-Apr-12 02:33N 29°59' W 090°24'0 0.0
2014-Apr-12 01:30N 29°59' W 090°24'0 0.0
2014-Apr-11 23:29N 29°59' W 090°24'5 0.4
2014-Apr-11 11:25N 29°57' W 090°19'0 0.0
2014-Apr-11 10:32N 29°57' W 090°19'0 0.0
2014-Apr-11 09:26N 29°57' W 090°19'0 0.0
2014-Apr-11 08:27N 29°57' W 090°19'0 0.0
2014-Apr-11 07:31N 29°57' W 090°19'7 4.7
2014-Apr-11 06:07N 29°56' W 090°11'  

Dump ship's entire track history

sailing weather and tide predictions

Captain Jimmy T Moran — WDE6653 — position and weather